DLH102 UUBW-ULLI
Flight info
| Callsign | DLH102 |
|---|---|
| Flight time | 1h 8m |
| Altitude | 40000 |
| Route | SUNUN2B SUNUN M869 RAVKA N50 NUDKO T561 ODATI T875 GENPA GENPA1V |
| Aircraft | MD11/H-SDE1E2E3FGHIJ2J3J4J5M1RWXY/LB1D1 |
Departure
| Time | 2026-04-30 20:41 |
|---|---|
| Airport | Zhukovsky International Airport (UUBW) |
Arrival
| Time | 2026-04-30 21:49 |
|---|---|
| Airport | Pulkovo Airport (ULLI) |
| Time | Latitude | Longitude | Altitude | Speed | Heading |
|---|---|---|---|---|---|
| 2026-04-30 20:27 | 55.55975 | 38.12537 | 411 ft | 0 kts | 304° |
| 2026-04-30 20:37 | 55.55976 | 38.12535 | 411 ft | 0 kts | 304° |
| 2026-04-30 20:37 | 55.55980 | 38.12532 | 411 ft | 1 kts | 321° |
| 2026-04-30 20:37 | 55.55984 | 38.12531 | 416 ft | 3 kts | 340° |
| 2026-04-30 20:38 | 55.56036 | 38.12565 | 409 ft | 13 kts | 37° |
| 2026-04-30 20:38 | 55.56072 | 38.12772 | 416 ft | 25 kts | 97° |
| 2026-04-30 20:38 | 55.55984 | 38.13021 | 410 ft | 25 kts | 130° |
| 2026-04-30 20:39 | 55.55619 | 38.13750 | 412 ft | 65 kts | 132° |
| 2026-04-30 20:39 | 55.55271 | 38.14440 | 409 ft | 78 kts | 131° |
| 2026-04-30 20:39 | 55.54929 | 38.15121 | 402 ft | 65 kts | 130° |
| 2026-04-30 20:40 | 55.54937 | 38.15651 | 401 ft | 0 kts | 61° |
| 2026-04-30 20:40 | 55.54959 | 38.15709 | 402 ft | 10 kts | 51° |
| 2026-04-30 20:40 | 55.55001 | 38.15717 | 402 ft | 10 kts | 351° |
| 2026-04-30 20:41 | 55.55665 | 38.14240 | 459 ft | 192 kts | 312° |
| 2026-04-30 20:41 | 55.56488 | 38.12569 | 2382 ft | 152 kts | 311° |
| 2026-04-30 20:41 | 55.57196 | 38.11069 | 3569 ft | 161 kts | 311° |
| 2026-04-30 20:41 | 55.57922 | 38.09592 | 3394 ft | 161 kts | 313° |
| 2026-04-30 20:42 | 55.58675 | 38.08127 | 3014 ft | 160 kts | 313° |
| 2026-04-30 20:42 | 55.59424 | 38.06676 | 2650 ft | 161 kts | 314° |
| 2026-04-30 20:42 | 55.59590 | 38.02962 | 1490 ft | 183 kts | 226° |
| 2026-04-30 20:43 | 55.58523 | 38.02070 | 1491 ft | 158 kts | 193° |
| 2026-04-30 20:43 | 55.57526 | 38.01248 | 1926 ft | 152 kts | 219° |
| 2026-04-30 20:43 | 55.56683 | 38.00007 | 2261 ft | 156 kts | 217° |
| 2026-04-30 20:44 | 55.54587 | 38.00407 | 1578 ft | 174 kts | 124° |
| 2026-04-30 20:44 | 55.54244 | 38.02463 | 2341 ft | 170 kts | 91° |
| 2026-04-30 20:44 | 55.53315 | 38.06520 | 3306 ft | 197 kts | 125° |
| 2026-04-30 20:45 | 55.51666 | 38.10205 | 3500 ft | 187 kts | 122° |
| 2026-04-30 20:45 | 55.51541 | 38.12434 | 3842 ft | 208 kts | 49° |
| 2026-04-30 20:45 | 55.52897 | 38.12888 | 4201 ft | 222 kts | 346° |
| 2026-04-30 20:46 | 55.55394 | 38.07476 | 6241 ft | 272 kts | 247° |
| 2026-04-30 20:46 | 55.54769 | 38.04432 | 6685 ft | 267 kts | 256° |
| 2026-04-30 20:47 | 55.54231 | 37.97999 | 7775 ft | 272 kts | 266° |
| 2026-04-30 20:47 | 55.53963 | 37.94695 | 7376 ft | 271 kts | 259° |
| 2026-04-30 20:48 | 55.53004 | 37.88315 | 9319 ft | 278 kts | 256° |
| 2026-04-30 20:48 | 55.52490 | 37.85017 | 9215 ft | 278 kts | 256° |
| 2026-04-30 20:48 | 55.51980 | 37.81727 | 9210 ft | 278 kts | 256° |
| 2026-04-30 20:48 | 55.51473 | 37.78433 | 9218 ft | 278 kts | 256° |
| 2026-04-30 20:49 | 55.50968 | 37.75140 | 9213 ft | 278 kts | 256° |
| 2026-04-30 20:49 | 55.50402 | 37.71882 | 9206 ft | 279 kts | 251° |
| 2026-04-30 20:49 | 55.49671 | 37.68717 | 9211 ft | 279 kts | 248° |
| 2026-04-30 20:50 | 55.48369 | 37.63513 | 9209 ft | 279 kts | 247° |
| 2026-04-30 20:50 | 55.47578 | 37.60389 | 9210 ft | 279 kts | 247° |
| 2026-04-30 20:50 | 55.46776 | 37.57274 | 9205 ft | 279 kts | 244° |
| 2026-04-30 20:50 | 55.45595 | 37.54577 | 9293 ft | 278 kts | 223° |
| 2026-04-30 20:51 | 55.44066 | 37.52439 | 9721 ft | 282 kts | 217° |
| 2026-04-30 20:51 | 55.40840 | 37.48420 | 10188 ft | 286 kts | 216° |
| 2026-04-30 20:51 | 55.39210 | 37.46416 | 10203 ft | 286 kts | 216° |
| 2026-04-30 20:52 | 55.37586 | 37.44409 | 10209 ft | 286 kts | 216° |
| 2026-04-30 20:52 | 55.35956 | 37.42389 | 10208 ft | 286 kts | 216° |
| 2026-04-30 20:52 | 55.32808 | 37.38144 | 10195 ft | 292 kts | 229° |
| 2026-04-30 20:53 | 55.31834 | 37.34966 | 11368 ft | 293 kts | 256° |
| 2026-04-30 20:53 | 55.31552 | 37.31545 | 13339 ft | 274 kts | 268° |
| 2026-04-30 20:53 | 55.31471 | 37.28203 | 14770 ft | 286 kts | 270° |
| 2026-04-30 20:54 | 55.31409 | 37.20505 | 15195 ft | 327 kts | 271° |
| 2026-04-30 20:54 | 55.31377 | 37.16504 | 15201 ft | 328 kts | 271° |
| 2026-04-30 20:54 | 55.31420 | 37.12498 | 15199 ft | 328 kts | 280° |
| 2026-04-30 20:55 | 55.32771 | 37.04928 | 17148 ft | 323 kts | 294° |
| 2026-04-30 20:55 | 55.33624 | 37.01193 | 17991 ft | 334 kts | 295° |
| 2026-04-30 20:55 | 55.34512 | 36.97401 | 17598 ft | 337 kts | 295° |
| 2026-04-30 20:56 | 55.36247 | 36.89794 | 17217 ft | 334 kts | 295° |
| 2026-04-30 20:56 | 55.37195 | 36.86075 | 17206 ft | 332 kts | 302° |
| 2026-04-30 20:56 | 55.40628 | 36.80816 | 19242 ft | 327 kts | 340° |
| 2026-04-30 20:57 | 55.42796 | 36.79780 | 20423 ft | 327 kts | 353° |
| 2026-04-30 20:57 | 55.45084 | 36.79400 | 21700 ft | 327 kts | 359° |
| 2026-04-30 20:57 | 55.47342 | 36.79322 | 22820 ft | 330 kts | 1° |
| 2026-04-30 20:58 | 55.52002 | 36.79212 | 24759 ft | 340 kts | 0° |
| 2026-04-30 20:58 | 55.54390 | 36.79075 | 25585 ft | 345 kts | 359° |
| 2026-04-30 20:58 | 55.56804 | 36.78890 | 26372 ft | 350 kts | 359° |
| 2026-04-30 20:58 | 55.59251 | 36.78572 | 27070 ft | 356 kts | 354° |
| 2026-04-30 20:59 | 55.64085 | 36.74907 | 27403 ft | 407 kts | 330° |
| 2026-04-30 20:59 | 55.66419 | 36.71925 | 28040 ft | 417 kts | 327° |
| 2026-04-30 21:00 | 55.71117 | 36.65621 | 29682 ft | 429 kts | 327° |
| 2026-04-30 21:00 | 55.76002 | 36.59278 | 31045 ft | 441 kts | 328° |
| 2026-04-30 21:01 | 55.81036 | 36.52893 | 32230 ft | 452 kts | 328° |
| 2026-04-30 21:01 | 55.83603 | 36.49649 | 32951 ft | 453 kts | 327° |
| 2026-04-30 21:01 | 55.88794 | 36.43211 | 34343 ft | 455 kts | 328° |
| 2026-04-30 21:02 | 55.91428 | 36.40084 | 34895 ft | 456 kts | 329° |
| 2026-04-30 21:02 | 55.94085 | 36.36969 | 35470 ft | 457 kts | 329° |
| 2026-04-30 21:02 | 55.96743 | 36.33861 | 36022 ft | 458 kts | 329° |
| 2026-04-30 21:02 | 55.99408 | 36.30740 | 36580 ft | 458 kts | 329° |
| 2026-04-30 21:03 | 56.02081 | 36.27601 | 37127 ft | 459 kts | 329° |
| 2026-04-30 21:03 | 56.04750 | 36.24456 | 37663 ft | 459 kts | 328° |
| 2026-04-30 21:03 | 56.07414 | 36.21308 | 38192 ft | 460 kts | 328° |
| 2026-04-30 21:03 | 56.10091 | 36.18138 | 38669 ft | 461 kts | 328° |
| 2026-04-30 21:04 | 56.12739 | 36.14847 | 39055 ft | 463 kts | 324° |
| 2026-04-30 21:04 | 56.15125 | 36.10953 | 39378 ft | 466 kts | 314° |
| 2026-04-30 21:04 | 56.18641 | 36.01154 | 40046 ft | 470 kts | 301° |
| 2026-04-30 21:05 | 56.20419 | 35.96249 | 40166 ft | 468 kts | 311° |
| 2026-04-30 21:05 | 56.22640 | 35.92025 | 40213 ft | 464 kts | 321° |
| 2026-04-30 21:05 | 56.27790 | 35.85059 | 40221 ft | 463 kts | 325° |
| 2026-04-30 21:06 | 56.32805 | 35.77761 | 40220 ft | 464 kts | 322° |
| 2026-04-30 21:06 | 56.37769 | 35.70418 | 40219 ft | 464 kts | 323° |
| 2026-04-30 21:07 | 56.42823 | 35.63073 | 40220 ft | 464 kts | 323° |
| 2026-04-30 21:07 | 56.47799 | 35.55767 | 40221 ft | 463 kts | 323° |
| 2026-04-30 21:08 | 56.52793 | 35.48374 | 40223 ft | 464 kts | 323° |
| 2026-04-30 21:08 | 56.57787 | 35.40987 | 40226 ft | 463 kts | 323° |
| 2026-04-30 21:09 | 56.62887 | 35.33816 | 40223 ft | 463 kts | 325° |
| 2026-04-30 21:09 | 56.68019 | 35.26745 | 40224 ft | 463 kts | 325° |
| 2026-04-30 21:10 | 56.73148 | 35.19654 | 40221 ft | 463 kts | 325° |
| 2026-04-30 21:10 | 56.78272 | 35.12528 | 40219 ft | 463 kts | 324° |
| 2026-04-30 21:11 | 56.86249 | 35.01371 | 40222 ft | 463 kts | 325° |
| 2026-04-30 21:11 | 56.96456 | 34.88285 | 40211 ft | 461 kts | 329° |
| 2026-04-30 21:12 | 57.03556 | 34.79859 | 40228 ft | 461 kts | 329° |
| 2026-04-30 21:12 | 57.12036 | 34.69665 | 40216 ft | 460 kts | 329° |
| 2026-04-30 21:13 | 57.21717 | 34.57921 | 40209 ft | 459 kts | 329° |
| 2026-04-30 21:13 | 57.31640 | 34.45807 | 40211 ft | 459 kts | 329° |
| 2026-04-30 21:14 | 57.38168 | 34.37795 | 40207 ft | 458 kts | 329° |
| 2026-04-30 21:14 | 57.43469 | 34.31262 | 40202 ft | 458 kts | 329° |
| 2026-04-30 21:15 | 57.48732 | 34.24755 | 40201 ft | 457 kts | 329° |
| 2026-04-30 21:15 | 57.54025 | 34.18187 | 40202 ft | 457 kts | 329° |
| 2026-04-30 21:16 | 57.59300 | 34.11603 | 40201 ft | 457 kts | 329° |
| 2026-04-30 21:16 | 57.64558 | 34.04955 | 40196 ft | 456 kts | 329° |
| 2026-04-30 21:17 | 57.69814 | 33.98324 | 40194 ft | 455 kts | 329° |
| 2026-04-30 21:17 | 57.75069 | 33.91703 | 40193 ft | 455 kts | 329° |
| 2026-04-30 21:18 | 57.80303 | 33.85092 | 40193 ft | 454 kts | 329° |
| 2026-04-30 21:18 | 57.85538 | 33.78458 | 40195 ft | 453 kts | 329° |
| 2026-04-30 21:19 | 57.90662 | 33.71505 | 40191 ft | 455 kts | 325° |
| 2026-04-30 21:19 | 57.95549 | 33.64071 | 40191 ft | 455 kts | 324° |
| 2026-04-30 21:20 | 58.00441 | 33.56516 | 40186 ft | 454 kts | 324° |
| 2026-04-30 21:20 | 58.05339 | 33.48987 | 40187 ft | 454 kts | 324° |
| 2026-04-30 21:21 | 58.10228 | 33.41479 | 40123 ft | 449 kts | 324° |
| 2026-04-30 21:21 | 58.15063 | 33.34029 | 37783 ft | 447 kts | 325° |
| 2026-04-30 21:22 | 58.17465 | 33.30314 | 36546 ft | 443 kts | 326° |
| 2026-04-30 21:22 | 58.24488 | 33.19380 | 33057 ft | 421 kts | 327° |
| 2026-04-30 21:23 | 58.26675 | 33.15950 | 32742 ft | 395 kts | 327° |
| 2026-04-30 21:23 | 58.28834 | 33.12510 | 31513 ft | 433 kts | 327° |
| 2026-04-30 21:23 | 58.33455 | 33.04972 | 28897 ft | 431 kts | 326° |
| 2026-04-30 21:24 | 58.35682 | 33.01289 | 27576 ft | 420 kts | 326° |
| 2026-04-30 21:24 | 58.37883 | 32.97716 | 26387 ft | 408 kts | 327° |
| 2026-04-30 21:24 | 58.40015 | 32.94281 | 25400 ft | 394 kts | 327° |
| 2026-04-30 21:24 | 58.42070 | 32.90971 | 24948 ft | 379 kts | 328° |
| 2026-04-30 21:25 | 58.46201 | 32.84774 | 25112 ft | 387 kts | 329° |
| 2026-04-30 21:25 | 58.48285 | 32.81646 | 24791 ft | 381 kts | 329° |
| 2026-04-30 21:25 | 58.50391 | 32.78478 | 24465 ft | 388 kts | 328° |
| 2026-04-30 21:26 | 58.54493 | 32.72115 | 24567 ft | 375 kts | 328° |
| 2026-04-30 21:26 | 58.56538 | 32.68838 | 24578 ft | 381 kts | 327° |
| 2026-04-30 21:27 | 58.60613 | 32.62191 | 23656 ft | 384 kts | 327° |
| 2026-04-30 21:27 | 58.62641 | 32.58924 | 22911 ft | 375 kts | 327° |
| 2026-04-30 21:27 | 58.64619 | 32.55756 | 22452 ft | 370 kts | 327° |
| 2026-04-30 21:28 | 58.68516 | 32.49488 | 21995 ft | 365 kts | 328° |
| 2026-04-30 21:28 | 58.70520 | 32.46417 | 22093 ft | 368 kts | 328° |
| 2026-04-30 21:28 | 58.74591 | 32.40100 | 21647 ft | 368 kts | 327° |
| 2026-04-30 21:29 | 58.76549 | 32.36885 | 21467 ft | 372 kts | 326° |
| 2026-04-30 21:29 | 58.82462 | 32.27110 | 21280 ft | 375 kts | 327° |
| 2026-04-30 21:30 | 58.86428 | 32.20799 | 21010 ft | 365 kts | 327° |
| 2026-04-30 21:31 | 58.92309 | 32.11304 | 20616 ft | 369 kts | 327° |
| 2026-04-30 21:31 | 58.96224 | 32.04908 | 20366 ft | 372 kts | 326° |
| 2026-04-30 21:32 | 59.00165 | 31.98430 | 20093 ft | 368 kts | 326° |
| 2026-04-30 21:32 | 59.02106 | 31.95225 | 19962 ft | 365 kts | 326° |
| 2026-04-30 21:32 | 59.04029 | 31.92049 | 19827 ft | 362 kts | 326° |
| 2026-04-30 21:32 | 59.05937 | 31.88894 | 19701 ft | 359 kts | 326° |
| 2026-04-30 21:33 | 59.07843 | 31.85743 | 19572 ft | 361 kts | 326° |
| 2026-04-30 21:33 | 59.11665 | 31.79289 | 19323 ft | 367 kts | 324° |
| 2026-04-30 21:33 | 59.13521 | 31.75852 | 19205 ft | 370 kts | 322° |
| 2026-04-30 21:34 | 59.15366 | 31.72343 | 19061 ft | 372 kts | 322° |
| 2026-04-30 21:34 | 59.19062 | 31.65262 | 18826 ft | 371 kts | 322° |
| 2026-04-30 21:34 | 59.20904 | 31.61734 | 18698 ft | 370 kts | 322° |
| 2026-04-30 21:35 | 59.22743 | 31.58219 | 18583 ft | 370 kts | 322° |
| 2026-04-30 21:35 | 59.24576 | 31.54714 | 18440 ft | 369 kts | 322° |
| 2026-04-30 21:35 | 59.26414 | 31.51195 | 18315 ft | 369 kts | 322° |
| 2026-04-30 21:35 | 59.28241 | 31.47680 | 18166 ft | 369 kts | 322° |
| 2026-04-30 21:36 | 59.30071 | 31.44154 | 18026 ft | 369 kts | 322° |
| 2026-04-30 21:36 | 59.31900 | 31.40631 | 17896 ft | 369 kts | 322° |
| 2026-04-30 21:37 | 59.37097 | 31.30540 | 17452 ft | 314 kts | 322° |
| 2026-04-30 21:37 | 59.38590 | 31.27628 | 17300 ft | 292 kts | 323° |
| 2026-04-30 21:37 | 59.39988 | 31.24909 | 17085 ft | 276 kts | 323° |
| 2026-04-30 21:37 | 59.40888 | 31.23169 | 16745 ft | 273 kts | 323° |
| 2026-04-30 21:38 | 59.42240 | 31.20566 | 16152 ft | 271 kts | 323° |
| 2026-04-30 21:38 | 59.43581 | 31.17984 | 15603 ft | 269 kts | 323° |
| 2026-04-30 21:38 | 59.45341 | 31.14581 | 14878 ft | 267 kts | 322° |
| 2026-04-30 21:38 | 59.46659 | 31.12023 | 14322 ft | 265 kts | 322° |
| 2026-04-30 21:39 | 59.47545 | 31.10302 | 13961 ft | 264 kts | 322° |
| 2026-04-30 21:39 | 59.48845 | 31.07771 | 13370 ft | 263 kts | 321° |
| 2026-04-30 21:39 | 59.50143 | 31.05240 | 12798 ft | 262 kts | 321° |
| 2026-04-30 21:39 | 59.51436 | 31.02712 | 12219 ft | 261 kts | 320° |
| 2026-04-30 21:40 | 59.52671 | 31.00073 | 11655 ft | 262 kts | 317° |
| 2026-04-30 21:40 | 59.53866 | 30.97359 | 11121 ft | 262 kts | 316° |
| 2026-04-30 21:40 | 59.55050 | 30.94636 | 10597 ft | 261 kts | 316° |
| 2026-04-30 21:40 | 59.56214 | 30.91956 | 10112 ft | 261 kts | 316° |
| 2026-04-30 21:41 | 59.57406 | 30.89209 | 9566 ft | 259 kts | 315° |
| 2026-04-30 21:41 | 59.58524 | 30.86634 | 9082 ft | 258 kts | 315° |
| 2026-04-30 21:41 | 59.59579 | 30.84202 | 8632 ft | 256 kts | 315° |
| 2026-04-30 21:41 | 59.60734 | 30.81539 | 8138 ft | 255 kts | 315° |
| 2026-04-30 21:42 | 59.61884 | 30.78889 | 7664 ft | 253 kts | 315° |
| 2026-04-30 21:42 | 59.63024 | 30.76256 | 7200 ft | 252 kts | 314° |
| 2026-04-30 21:42 | 59.64158 | 30.73635 | 6735 ft | 250 kts | 314° |
| 2026-04-30 21:42 | 59.65286 | 30.71026 | 6273 ft | 249 kts | 314° |
| 2026-04-30 21:43 | 59.66449 | 30.68520 | 5736 ft | 245 kts | 321° |
| 2026-04-30 21:43 | 59.67726 | 30.66513 | 5408 ft | 221 kts | 326° |
| 2026-04-30 21:43 | 59.68876 | 30.64856 | 5260 ft | 190 kts | 327° |
| 2026-04-30 21:43 | 59.69886 | 30.63423 | 5108 ft | 168 kts | 328° |
| 2026-04-30 21:44 | 59.70792 | 30.62144 | 4890 ft | 155 kts | 328° |
| 2026-04-30 21:44 | 59.71666 | 30.60917 | 4505 ft | 154 kts | 328° |
| 2026-04-30 21:44 | 59.72545 | 30.59687 | 4092 ft | 154 kts | 328° |
| 2026-04-30 21:44 | 59.73424 | 30.58456 | 3709 ft | 155 kts | 327° |
| 2026-04-30 21:45 | 59.74277 | 30.57158 | 3309 ft | 156 kts | 317° |
| 2026-04-30 21:45 | 59.74822 | 30.55242 | 2808 ft | 166 kts | 292° |
| 2026-04-30 21:45 | 59.75178 | 30.53080 | 2464 ft | 162 kts | 291° |
| 2026-04-30 21:45 | 59.75524 | 30.50951 | 2117 ft | 161 kts | 291° |
| 2026-04-30 21:46 | 59.75848 | 30.48907 | 2249 ft | 149 kts | 291° |
| 2026-04-30 21:46 | 59.76140 | 30.47030 | 2323 ft | 140 kts | 291° |
| 2026-04-30 21:46 | 59.76427 | 30.45206 | 1991 ft | 138 kts | 291° |
| 2026-04-30 21:46 | 59.76695 | 30.43374 | 1649 ft | 134 kts | 289° |
| 2026-04-30 21:47 | 59.76958 | 30.41626 | 1423 ft | 129 kts | 291° |
| 2026-04-30 21:47 | 59.77277 | 30.39944 | 1322 ft | 129 kts | 293° |
| 2026-04-30 21:47 | 59.77521 | 30.38215 | 1332 ft | 132 kts | 287° |
| 2026-04-30 21:47 | 59.77757 | 30.36491 | 1092 ft | 130 kts | 290° |
| 2026-04-30 21:48 | 59.78054 | 30.34787 | 851 ft | 129 kts | 289° |
| 2026-04-30 21:48 | 59.78330 | 30.33105 | 674 ft | 131 kts | 286° |
| 2026-04-30 21:48 | 59.78582 | 30.31362 | 456 ft | 130 kts | 286° |
| 2026-04-30 21:48 | 59.78826 | 30.29662 | 286 ft | 130 kts | 285° |
| 2026-04-30 21:49 | 59.79080 | 30.27956 | 115 ft | 129 kts | 286° |
| 2026-04-30 21:49 | 59.79299 | 30.26491 | 93 ft | 71 kts | 286° |
| 2026-04-30 21:49 | 59.79383 | 30.25928 | 94 ft | 38 kts | 286° |
| 2026-04-30 21:49 | 59.79446 | 30.25540 | 94 ft | 1 kts | 306° |
| 2026-04-30 21:50 | 59.79448 | 30.25538 | 94 ft | 0 kts | 322° |
| 2026-04-30 21:50 | 59.79472 | 30.25554 | 94 ft | 1 kts | 33° |
| 2026-04-30 21:51 | 59.79481 | 30.25571 | 94 ft | 13 kts | 44° |
| 2026-04-30 21:51 | 59.79511 | 30.25678 | 94 ft | 1 kts | 72° |
| 2026-04-30 21:51 | 59.79551 | 30.25963 | 93 ft | 17 kts | 72° |
| 2026-04-30 21:51 | 59.79554 | 30.25992 | 93 ft | 0 kts | 77° |
| 2026-04-30 21:52 | 59.79553 | 30.25996 | 94 ft | 0 kts | 91° |
| 2026-04-30 21:52 | 59.79552 | 30.25998 | 94 ft | 1 kts | 96° |
| 2026-04-30 21:52 | 59.79550 | 30.26019 | 91 ft | 6 kts | 101° |
| 2026-04-30 21:52 | 59.79540 | 30.26104 | 95 ft | 2 kts | 104° |
| 2026-04-30 21:53 | 59.79528 | 30.26231 | 94 ft | 8 kts | 88° |
| 2026-04-30 21:53 | 59.79568 | 30.26315 | 93 ft | 17 kts | 27° |
| 2026-04-30 21:53 | 59.79713 | 30.26409 | 91 ft | 24 kts | 16° |
| 2026-04-30 21:53 | 59.79824 | 30.26478 | 90 ft | 26 kts | 18° |
| 2026-04-30 21:54 | 59.79987 | 30.26571 | 88 ft | 20 kts | 14° |
| 2026-04-30 21:54 | 59.80133 | 30.26657 | 87 ft | 23 kts | 17° |
| 2026-04-30 21:54 | 59.80294 | 30.26749 | 86 ft | 19 kts | 9° |
| 2026-04-30 21:54 | 59.80321 | 30.26731 | 88 ft | 2 kts | 314° |
| 2026-04-30 21:55 | 59.80337 | 30.26648 | 87 ft | 8 kts | 289° |
| 2026-04-30 21:55 | 59.80348 | 30.26576 | 85 ft | 0 kts | 287° |
| 2026-04-30 22:07 | 59.80348 | 30.26577 | 83 ft | 0 kts | 287° |
| 2026-04-30 22:09 | 59.80348 | 30.26576 | 83 ft | 0 kts | 287° |